Time;durP1;ratioP1;P1;durP2;ratioP2;P2;SDS_P1;SDS_P2;PMS_P1;PMS_P2;Temp;Humidity;BMP_temperature;BMP_pressure;BME280_temperature;BME280_humidity;BME280_pressure;Samples;Min_cycle;Max_cycle;Signal;HPM_P1;HPM_P2
2023/09/05 00:01:54;;;;;;;1.38;1.30;;;;;;;17.77;nan;18843.25;5018319;28;20195;-66
2023/09/05 00:04:20;;;;;;;0.60;0.60;;;;;;;17.66;nan;19492.13;5019861;28;20234;-68
2023/09/05 00:06:49;;;;;;;0.60;0.60;;;;;;;17.87;nan;23096.72;5016039;28;20216;-68
2023/09/05 00:09:19;;;;;;;0.70;0.70;;;;;;;18.11;nan;23108.63;5018246;28;20239;-68
2023/09/05 00:11:45;;;;;;;0.60;0.60;;;;;;;17.86;nan;21461.53;5019596;28;20274;-67
2023/09/05 00:14:11;;;;;;;0.77;0.77;;;;;;;17.94;nan;23427.56;5018426;28;20180;-68
2023/09/05 00:16:38;;;;;;;0.90;0.90;;;;;;;17.85;nan;20807.31;5013746;28;20188;-69
2023/09/05 00:19:04;;;;;;;0.70;0.70;;;;;;;17.76;nan;18516.44;5011522;28;20599;-66
2023/09/05 00:21:29;;;;;;;0.60;0.60;;;;;;;17.97;nan;19178.50;5016829;28;20721;-68
2023/09/05 00:24:28;;;;;;;0.63;0.63;;;;;;;18.13;nan;21801.03;5017684;28;20252;-68
2023/09/05 00:26:55;;;;;;;0.82;0.82;;;;;;;17.83;nan;20479.34;5018484;28;20212;-67
2023/09/05 00:29:21;;;;;;;0.65;0.65;;;;;;;18.07;nan;20490.25;5017298;28;20204;-68
2023/09/05 00:31:47;;;;;;;0.60;0.60;;;;;;;17.90;nan;19502.41;5015560;28;20180;-67
2023/09/05 00:34:15;;;;;;;0.65;0.65;;;;;;;17.89;nan;18848.34;5013644;28;20188;-68
2023/09/05 00:36:42;;;;;;;1.05;1.02;;;;;;;18.02;nan;17873.84;5015697;28;20191;-68
2023/09/05 00:39:08;;;;;;;0.68;0.63;;;;;;;17.92;nan;15258.09;5013818;28;20662;-66
2023/09/05 00:41:35;;;;;;;0.60;0.60;;;;;;;17.83;nan;14276.28;5020381;28;20317;-68
2023/09/05 00:44:01;;;;;;;1.42;1.33;;;;;;;17.61;nan;12638.63;5018359;28;20270;-67
2023/09/05 00:46:31;;;;;;;0.80;0.80;;;;;;;17.99;nan;15587.25;5013394;28;20615;-68
2023/09/05 00:49:02;;;;;;;0.63;0.63;;;;;;;18.01;nan;16240.69;5017618;28;20203;-68
2023/09/05 00:51:31;;;;;;;0.65;0.65;;;;;;;17.82;nan;13949.78;5009251;28;20278;-69
2023/09/05 00:54:01;;;;;;;0.60;0.60;;;;;;;17.55;nan;12310.81;5020005;28;20184;-68
2023/09/05 00:56:27;;;;;;;0.80;0.80;;;;;;;17.63;nan;13291.16;5017130;28;20234;-68
2023/09/05 00:58:52;;;;;;;0.93;0.93;;;;;;;17.67;nan;13944.75;5018504;28;20222;-68
2023/09/05 01:01:17;;;;;;;0.70;0.70;;;;;;;17.59;nan;12964.06;5017339;28;20643;-68
2023/09/05 01:03:43;;;;;;;0.80;0.80;;;;;;;17.57;nan;12637.47;5014774;28;20176;-68
2023/09/05 01:06:31;;;;;;;0.70;0.70;;;;;;;17.51;nan;10029.72;5016757;28;20184;-68
2023/09/05 01:09:04;;;;;;;1.00;1.00;;;;;;;17.22;nan;9370.88;5012123;28;20228;-66
2023/09/05 01:11:30;;;;;;;0.50;0.50;;;;;;;17.20;nan;7418.69;5021534;28;20211;-67
2023/09/05 01:13:55;;;;;;;0.90;0.90;;;;;;;17.23;nan;6118.78;5016563;28;20601;-68
2023/09/05 01:16:21;;;;;;;0.80;0.80;;;;;;;16.97;nan;5138.53;5020861;28;20267;-66
2023/09/05 01:18:46;;;;;;;0.80;0.80;;;;;;;17.21;nan;4168.63;5017310;28;20246;-68
2023/09/05 01:21:39;;;;;;;1.10;1.10;;;;;;;16.98;nan;2865.69;5016700;28;20172;-68
2023/09/05 01:24:20;;;;;;;0.63;0.63;;;;;;;17.21;nan;2869.44;5016812;28;20206;-66
2023/09/05 01:26:47;;;;;;;1.10;1.10;;;;;;;16.96;nan;2865.44;4997558;28;20553;-66
2023/09/05 01:29:15;;;;;;;0.80;0.80;;;;;;;17.10;nan;2867.66;5014133;28;20207;-68
2023/09/05 01:31:42;;;;;;;1.00;1.00;;;;;;;17.08;nan;920.00;5023199;28;20178;-68
2023/09/05 01:34:07;;;;;;;0.80;0.80;;;;;;;16.82;nan;-704.72;5014242;28;20184;-68
2023/09/05 01:36:33;;;;;;;0.90;0.90;;;;;;;17.01;nan;-1999.59;5016371;28;20271;-68
2023/09/05 01:38:58;;;;;;;0.90;0.90;;;;;;;16.98;nan;-378.81;5019461;28;20660;-66
2023/09/05 01:41:24;;;;;;;0.70;0.70;;;;;;;17.19;nan;1245.91;5014086;28;20229;-68
2023/09/05 01:43:49;;;;;;;0.80;0.80;;;;;;;17.08;nan;919.91;5017694;28;20215;-66
2023/09/05 01:46:15;;;;;;;0.75;0.75;;;;;;;17.26;nan;597.69;5013824;28;20187;-66
2023/09/05 01:48:40;;;;;;;0.88;0.88;;;;;;;17.01;nan;-1026.97;5022952;28;20206;-67
2023/09/05 01:51:06;;;;;;;0.75;0.75;;;;;;;17.23;nan;3844.22;5013690;28;20187;-67
2023/09/05 01:53:31;;;;;;;0.63;0.63;;;;;;;17.48;nan;5799.03;5018489;28;20179;-68
2023/09/05 01:55:57;;;;;;;0.80;0.80;;;;;;;17.23;nan;5468.84;5020266;28;20187;-68
2023/09/05 01:58:24;;;;;;;0.98;0.98;;;;;;;17.27;nan;5144.44;5013703;28;20180;-68
2023/09/05 02:00:49;;;;;;;0.90;0.90;;;;;;;17.34;nan;3846.13;5013655;28;20172;-68
2023/09/05 02:03:15;;;;;;;0.82;0.82;;;;;;;17.43;nan;3197.91;5013076;28;20191;-67
2023/09/05 02:05:40;;;;;;;0.70;0.70;;;;;;;17.53;nan;5800.00;5012177;28;20223;-69
2023/09/05 02:08:06;;;;;;;0.77;0.77;;;;;;;17.44;nan;4822.81;5017890;28;20226;-67
2023/09/05 02:10:31;;;;;;;0.60;0.60;;;;;;;17.51;nan;5474.41;5013511;28;20285;-67
2023/09/05 02:12:57;;;;;;;0.70;0.70;;;;;;;17.34;nan;4171.03;5013384;28;20182;-69
2023/09/05 02:15:22;;;;;;;1.38;1.27;;;;;;;17.59;nan;3525.53;5013478;28;20553;-69
2023/09/05 02:17:48;;;;;;;0.50;0.50;;;;;;;17.48;nan;7425.25;5013469;28;20172;-66
2023/09/05 02:20:14;;;;;;;0.95;0.95;;;;;;;17.72;nan;8081.84;5013331;28;20180;-66
2023/09/05 02:22:41;;;;;;;0.82;0.82;;;;;;;17.79;nan;7107.09;5012941;28;20311;-67
2023/09/05 02:25:07;;;;;;;0.98;0.98;;;;;;;17.83;nan;7433.41;5013337;28;20172;-69
2023/09/05 02:27:33;;;;;;;1.58;1.48;;;;;;;17.78;nan;7757.81;5012870;28;20675;-67
2023/09/05 02:30:01;;;;;;;0.70;0.70;;;;;;;17.77;nan;7106.50;5013161;28;20238;-68
2023/09/05 02:32:29;;;;;;;0.60;0.60;;;;;;;17.87;nan;9713.97;5012849;28;20603;-69
2023/09/05 02:34:56;;;;;;;0.77;0.77;;;;;;;17.58;nan;10682.88;5012927;28;20176;-67
2023/09/05 02:37:21;;;;;;;0.70;0.70;;;;;;;17.96;nan;12975.94;5012870;28;20256;-68
2023/09/05 02:39:47;;;;;;;0.40;0.40;;;;;;;17.74;nan;12968.66;5013039;28;20176;-69
2023/09/05 02:42:12;;;;;;;0.60;0.60;;;;;;;17.74;nan;11013.22;5012973;28;20169;-69
2023/09/05 02:44:37;;;;;;;0.90;0.90;;;;;;;17.82;nan;11015.75;5012768;28;20234;-69
2023/09/05 02:47:03;;;;;;;0.73;0.73;;;;;;;17.99;nan;13955.47;5012939;28;20655;-69
2023/09/05 02:49:28;;;;;;;0.73;0.73;;;;;;;17.71;nan;12641.72;5012796;28;20200;-67
2023/09/05 02:51:54;;;;;;;0.93;0.93;;;;;;;17.95;nan;13628.06;5012298;28;20172;-66
2023/09/05 02:54:19;;;;;;;0.65;0.65;;;;;;;17.94;nan;17217.44;5012909;28;20176;-68
2023/09/05 02:56:44;;;;;;;0.70;0.70;;;;;;;18.21;nan;17228.22;5012536;28;20176;-68
2023/09/05 02:59:10;;;;;;;0.60;0.60;;;;;;;18.05;nan;14610.16;5012667;28;20585;-68
2023/09/05 03:01:36;;;;;;;1.00;1.00;;;;;;;18.03;nan;14935.94;5012585;28;20864;-65
2023/09/05 03:04:01;;;;;;;0.70;0.70;;;;;;;17.86;nan;14277.16;5018162;28;20617;-66
2023/09/05 03:06:27;;;;;;;0.65;0.65;;;;;;;18.08;nan;12979.88;5012600;28;20171;-67
2023/09/05 03:08:52;;;;;;;0.85;0.85;;;;;;;17.88;nan;12973.28;5012188;28;20219;-68
2023/09/05 03:11:18;;;;;;;0.60;0.60;;;;;;;18.18;nan;16573.78;5012457;28;20177;-68
2023/09/05 03:13:45;;;;;;;0.55;0.55;;;;;;;17.99;nan;15587.06;5012471;28;20176;-68
2023/09/05 03:16:12;;;;;;;0.70;0.70;;;;;;;18.19;nan;14941.38;5012369;28;20176;-68
2023/09/05 03:18:40;;;;;;;0.70;0.70;;;;;;;18.11;nan;12654.69;5012107;28;20207;-67
2023/09/05 03:21:06;;;;;;;0.68;0.68;;;;;;;17.97;nan;11998.19;5014031;28;20179;-67
2023/09/05 03:23:31;;;;;;;0.57;0.57;;;;;;;18.04;nan;11348.28;5011096;28;20284;-66
2023/09/05 03:25:57;;;;;;;1.08;1.08;;;;;;;18.26;nan;10702.50;5012438;28;20200;-68
2023/09/05 03:28:23;;;;;;;0.70;0.70;;;;;;;18.13;nan;8091.97;5012072;28;20200;-68
2023/09/05 03:30:48;;;;;;;0.70;0.70;;;;;;;17.92;nan;5157.47;5012063;28;20180;-68
2023/09/05 03:33:14;;;;;;;0.85;0.85;;;;;;;17.84;nan;3529.81;5011963;28;20181;-66
2023/09/05 03:35:42;;;;;;;0.93;0.93;;;;;;;17.81;nan;2554.19;5011656;28;20211;-68
2023/09/05 03:38:07;;;;;;;1.52;0.98;;;;;;;17.97;nan;1906.53;5012140;28;20204;-66
2023/09/05 03:40:33;;;;;;;0.90;0.90;;;;;;;17.84;nan;1254.72;5012052;28;20283;-66
2023/09/05 03:42:59;;;;;;;0.80;0.80;;;;;;;17.91;nan;-368.59;5012046;28;20176;-68
2023/09/05 03:45:26;;;;;;;0.57;0.57;;;;;;;17.91;nan;-43.81;5011901;28;20187;-68
2023/09/05 03:47:51;;;;;;;0.73;0.73;;;;;;;18.07;nan;4184.41;5013780;28;20208;-68
2023/09/05 03:50:17;;;;;;;0.70;0.70;;;;;;;18.06;nan;4184.22;5019085;28;20538;-67
2023/09/05 03:52:43;;;;;;;0.63;0.63;;;;;;;17.98;nan;1581.66;5012142;28;20303;-67
2023/09/05 03:55:09;;;;;;;0.73;0.73;;;;;;;17.80;nan;1254.25;5018976;28;20190;-66
2023/09/05 03:57:34;;;;;;;0.70;0.70;;;;;;;17.72;nan;278.78;5018527;28;20192;-68
2023/09/05 04:00:00;;;;;;;0.68;0.68;;;;;;;17.99;nan;-367.69;5011733;28;20223;-68
2023/09/05 04:02:25;;;;;;;0.65;0.65;;;;;;;17.95;nan;-692.94;5011840;28;20180;-67
2023/09/05 04:04:55;;;;;;;0.80;0.80;;;;;;;17.77;nan;-1019.50;5015820;28;20202;-67
2023/09/05 04:07:21;;;;;;;0.80;0.80;;;;;;;17.89;nan;-3614.88;5014506;28;20203;-69
2023/09/05 04:09:47;;;;;;;0.63;0.60;;;;;;;17.61;nan;-6857.84;5016120;28;20283;-67
2023/09/05 04:12:13;;;;;;;0.50;0.50;;;;;;;17.60;nan;-7505.72;5008149;28;20862;-68
2023/09/05 04:14:38;;;;;;;0.60;0.60;;;;;;;17.60;nan;-8477.31;5015164;28;20176;-67
2023/09/05 04:17:03;;;;;;;0.60;0.60;;;;;;;17.63;nan;-8801.19;5015151;28;20246;-67
2023/09/05 04:19:29;;;;;;;0.88;0.88;;;;;;;17.69;nan;-9125.13;5018009;28;20180;-67
2023/09/05 04:21:55;;;;;;;1.02;1.02;;;;;;;17.69;nan;-9125.13;5017138;28;20202;-67
2023/09/05 04:24:21;;;;;;;3.00;1.48;;;;;;;17.48;nan;-9124.47;5014287;28;20172;-67
2023/09/05 04:26:46;;;;;;;0.60;0.60;;;;;;;17.82;nan;-9449.41;5007921;28;20175;-67
2023/09/05 04:29:12;;;;;;;1.15;1.13;;;;;;;17.88;nan;-9125.72;5004573;28;20196;-67
2023/09/05 04:31:37;;;;;;;0.70;0.70;;;;;;;17.89;nan;-9125.75;5005786;28;20703;-67
2023/09/05 04:34:03;;;;;;;0.93;0.93;;;;;;;17.84;nan;-5236.84;5003508;28;20168;-67
2023/09/05 04:36:28;;;;;;;0.70;0.70;;;;;;;18.08;nan;-5884.78;5004425;28;20217;-69
2023/09/05 04:38:54;;;;;;;0.73;0.73;;;;;;;17.92;nan;-4587.94;5003321;28;20160;-68
2023/09/05 04:41:20;;;;;;;0.70;0.70;;;;;;;18.13;nan;-4262.56;5005795;28;20218;-69
2023/09/05 04:43:46;;;;;;;0.65;0.65;;;;;;;18.01;nan;-4911.91;5000495;28;20223;-67
2023/09/05 04:46:12;;;;;;;0.90;0.90;;;;;;;18.28;nan;-3287.91;4994196;28;20165;-67
2023/09/05 04:48:38;;;;;;;0.95;0.95;;;;;;;18.06;nan;-3938.38;4995180;28;20200;-69
2023/09/05 04:51:03;;;;;;;0.75;0.75;;;;;;;18.25;nan;-3288.13;4995667;28;20180;-68
2023/09/05 04:53:30;;;;;;;0.82;0.82;;;;;;;18.21;nan;-5235.66;4995286;28;20172;-68
2023/09/05 04:55:59;;;;;;;0.68;0.68;;;;;;;17.98;nan;-5560.69;4995343;28;20207;-68
2023/09/05 04:58:25;;;;;;;1.48;1.40;;;;;;;17.98;nan;-6533.47;4995035;28;20239;-67
2023/09/05 05:00:51;;;;;;;0.80;0.80;;;;;;;18.12;nan;-8154.28;4994455;28;20220;-67
2023/09/05 05:03:16;;;;;;;0.90;0.90;;;;;;;18.02;nan;-8802.19;4995065;28;20209;-67
2023/09/05 05:05:41;;;;;;;0.77;0.77;;;;;;;17.93;nan;-9125.88;4995069;28;20177;-69
2023/09/05 05:08:07;;;;;;;0.70;0.70;;;;;;;18.22;nan;-8154.44;4994736;28;20270;-70
2023/09/05 05:10:35;;;;;;;0.70;0.70;;;;;;;18.31;nan;-7181.78;4995282;28;20184;-68
2023/09/05 05:13:01;;;;;;;0.70;0.70;;;;;;;18.13;nan;-6533.31;4999277;28;20192;-68
2023/09/05 05:15:26;;;;;;;0.77;0.77;;;;;;;18.22;nan;-7506.03;5018994;28;20179;-68
2023/09/05 05:17:52;;;;;;;0.60;0.60;;;;;;;18.21;nan;-7506.03;5016639;28;20893;-68
2023/09/05 05:20:18;;;;;;;0.80;0.77;;;;;;;18.13;nan;-7830.16;5019721;28;20188;-68
2023/09/05 05:22:43;;;;;;;0.55;0.55;;;;;;;18.36;nan;-7830.41;5013079;28;20190;-67
2023/09/05 05:25:09;;;;;;;0.60;0.60;;;;;;;18.36;nan;-8154.66;5001327;28;20263;-67
2023/09/05 05:27:34;;;;;;;0.75;0.75;;;;;;;18.15;nan;-7181.78;5002276;28;20552;-68
2023/09/05 05:30:01;;;;;;;0.63;0.63;;;;;;;18.24;nan;-5560.03;5002785;28;20176;-67
2023/09/05 05:32:27;;;;;;;0.60;0.60;;;;;;;18.27;nan;-3612.66;5011109;28;20721;-67
2023/09/05 05:34:52;;;;;;;0.63;0.63;;;;;;;18.20;nan;-1989.66;5014160;28;20204;-67
2023/09/05 05:37:18;;;;;;;0.60;0.60;;;;;;;18.25;nan;-4261.97;5013818;28;20635;-68
2023/09/05 05:39:44;;;;;;;0.55;0.55;;;;;;;18.18;nan;-4911.31;5012499;28;20172;-68
2023/09/05 05:42:10;;;;;;;0.88;0.88;;;;;;;18.30;nan;-5559.84;5013818;28;20243;-68
2023/09/05 05:44:35;;;;;;;0.90;0.90;;;;;;;18.36;nan;-5884.19;5013843;28;20172;-67
2023/09/05 05:47:01;;;;;;;0.65;0.65;;;;;;;18.41;nan;-4585.84;5013182;28;20644;-68
2023/09/05 05:49:29;;;;;;;0.65;0.65;;;;;;;18.48;nan;-2312.13;5013714;28;20200;-69
2023/09/05 05:51:58;;;;;;;0.75;0.75;;;;;;;18.24;nan;-1989.28;5013509;28;20211;-69
2023/09/05 05:54:24;;;;;;;0.82;0.82;;;;;;;18.36;nan;-1988.25;5013457;28;20230;-69
2023/09/05 05:56:52;;;;;;;0.50;0.50;;;;;;;18.16;nan;-2964.06;5013667;28;20172;-69
2023/09/05 05:59:17;;;;;;;0.70;0.70;;;;;;;18.18;nan;-3937.75;5013787;28;20186;-69
2023/09/05 06:01:43;;;;;;;0.85;0.85;;;;;;;18.16;nan;-5560.25;5013572;28;20176;-67
2023/09/05 06:04:08;;;;;;;0.68;0.68;;;;;;;18.23;nan;-6208.84;5013594;28;20179;-69
2023/09/05 06:06:34;;;;;;;0.70;0.70;;;;;;;18.23;nan;-7830.28;5017566;28;20275;-69
2023/09/05 06:08:59;;;;;;;0.90;0.90;;;;;;;18.53;nan;-8154.94;5013367;28;20240;-69
2023/09/05 06:11:25;;;;;;;0.73;0.73;;;;;;;18.38;nan;-6208.59;5013168;28;20192;-67
2023/09/05 06:13:52;;;;;;;3.30;2.25;;;;;;;18.82;nan;-4584.13;5013334;28;20624;-68
2023/09/05 06:16:21;;;;;;;1.80;1.70;;;;;;;18.64;nan;-4260.16;5012929;28;20164;-70
2023/09/05 06:18:46;;;;;;;1.15;1.15;;;;;;;18.92;nan;-3608.88;5016988;28;20221;-69
2023/09/05 06:21:11;;;;;;;0.82;0.82;;;;;;;19.09;nan;-2632.56;5013506;28;20278;-70
2023/09/05 06:23:37;;;;;;;0.95;0.95;;;;;;;18.90;nan;-1658.53;5012747;28;20258;-68
2023/09/05 06:26:02;;;;;;;0.60;0.60;;;;;;;19.08;nan;1271.75;5012964;28;20184;-68
2023/09/05 06:28:27;;;;;;;0.70;0.70;;;;;;;19.30;nan;4207.03;5012925;28;20191;-70
2023/09/05 06:30:57;;;;;;;0.77;0.77;;;;;;;18.77;nan;291.41;5012911;28;20176;-70
2023/09/05 06:33:23;;;;;;;0.73;0.73;;;;;;;18.75;nan;-1984.97;5012726;28;20168;-69
2023/09/05 06:35:48;;;;;;;0.50;0.50;;;;;;;18.73;nan;-1009.91;5013115;28;20187;-68
2023/09/05 06:38:14;;;;;;;0.68;0.68;;;;;;;18.92;nan;2571.66;4998043;28;20198;-68
2023/09/05 06:40:40;;;;;;;1.35;0.82;;;;;;;18.79;nan;2895.19;4993129;28;20204;-68
2023/09/05 06:43:06;;;;;;;0.70;0.70;;;;;;;18.99;nan;6808.75;4993038;28;20252;-69
2023/09/05 06:45:31;;;;;;;0.63;0.63;;;;;;;19.17;nan;6486.63;4992824;28;20276;-69
2023/09/05 06:47:57;;;;;;;2.38;1.75;;;;;;;19.26;nan;8772.59;4992964;28;20208;-68
2023/09/05 06:50:23;;;;;;;0.80;0.80;;;;;;;18.99;nan;7787.06;4992647;28;20177;-67
2023/09/05 06:52:49;;;;;;;0.47;0.47;;;;;;;19.01;nan;6483.16;4992855;28;20669;-68
2023/09/05 06:55:15;;;;;;;0.65;0.65;;;;;;;18.71;nan;4521.91;4993256;28;20197;-68
2023/09/05 06:57:40;;;;;;;0.90;0.90;;;;;;;19.17;nan;3553.00;4993466;28;20620;-67
2023/09/05 07:00:07;;;;;;;0.80;0.80;;;;;;;19.15;nan;2901.06;4992990;28;20171;-68
2023/09/05 07:02:32;;;;;;;0.80;0.80;;;;;;;18.87;nan;1919.84;5011142;28;20202;-67
2023/09/05 07:04:58;;;;;;;0.63;0.63;;;;;;;18.84;nan;1268.41;5012793;28;20678;-68
2023/09/05 07:07:26;;;;;;;0.50;0.50;;;;;;;18.70;nan;-1010.16;5012059;28;20534;-68
2023/09/05 07:09:51;;;;;;;0.60;0.60;;;;;;;18.64;nan;1265.63;5011599;28;20160;-67
2023/09/05 07:12:17;;;;;;;0.57;0.57;;;;;;;18.64;nan;1265.63;5010735;28;20222;-67
2023/09/05 07:14:45;;;;;;;0.70;0.70;;;;;;;18.90;nan;3222.66;5010377;28;20690;-68
2023/09/05 07:17:11;;;;;;;0.63;0.63;;;;;;;18.87;nan;2570.84;5010362;28;20639;-67
2023/09/05 07:19:36;;;;;;;0.70;0.70;;;;;;;19.01;nan;3875.94;5010509;28;20195;-66
2023/09/05 07:22:03;;;;;;;0.55;0.55;;;;;;;18.64;nan;289.88;5010598;28;20168;-67
2023/09/05 07:24:28;;;;;;;0.82;0.82;;;;;;;18.71;nan;-2635.34;5010609;28;20179;-68
2023/09/05 07:26:53;;;;;;;0.85;0.85;;;;;;;18.65;nan;-2960.72;5012494;28;20259;-68
2023/09/05 07:29:19;;;;;;;0.98;0.98;;;;;;;18.42;nan;-2637.50;5010959;28;20290;-66
2023/09/05 07:31:44;;;;;;;0.70;0.70;;;;;;;18.35;nan;-3287.50;5012586;28;20172;-66
2023/09/05 07:34:09;;;;;;;1.52;1.42;;;;;;;18.51;nan;-2961.63;5013034;28;20179;-67
2023/09/05 07:36:36;;;;;;;0.75;0.75;;;;;;;18.31;nan;-4586.28;5012646;28;20187;-68
2023/09/05 07:39:04;;;;;;;1.88;1.20;;;;;;;18.21;nan;-4262.19;5012317;28;20172;-68
2023/09/05 07:41:31;;;;;;;0.93;0.93;;;;;;;18.48;nan;-1987.28;5012194;28;20179;-67
2023/09/05 07:43:56;;;;;;;0.80;0.80;;;;;;;18.50;nan;-1337.13;5011955;28;20183;-67
2023/09/05 07:46:22;;;;;;;0.90;0.90;;;;;;;18.51;nan;-1337.03;5012169;28;20175;-68
2023/09/05 07:48:47;;;;;;;0.90;0.90;;;;;;;18.37;nan;-1663.28;5011876;28;20591;-68
2023/09/05 07:51:13;;;;;;;0.93;0.90;;;;;;;18.63;nan;-35.50;5012079;28;20187;-68
2023/09/05 07:53:39;;;;;;;0.65;0.65;;;;;;;18.74;nan;-1009.75;5012200;28;20176;-67
2023/09/05 07:56:05;;;;;;;0.77;0.77;;;;;;;18.63;nan;289.69;5012021;28;20379;-66
2023/09/05 07:58:30;;;;;;;0.55;0.55;;;;;;;19.01;nan;4527.44;5012509;28;20172;-68
2023/09/05 08:00:56;;;;;;;0.80;0.80;;;;;;;19.08;nan;7136.81;5012067;28;20569;-68
2023/09/05 08:03:26;;;;;;;1.00;1.00;;;;;;;19.04;nan;5179.81;5015890;28;20176;-67
2023/09/05 08:05:56;;;;;;;0.63;0.63;;;;;;;18.97;nan;7134.47;5016371;28;20230;-67
2023/09/05 08:08:21;;;;;;;0.75;0.75;;;;;;;19.05;nan;7788.53;5015698;28;20227;-66
2023/09/05 08:10:47;;;;;;;0.73;0.73;;;;;;;19.05;nan;9746.22;5015770;28;20176;-66
2023/09/05 08:13:16;;;;;;;0.95;0.95;;;;;;;19.07;nan;10399.47;5015669;28;20194;-66
2023/09/05 08:15:43;;;;;;;0.65;0.65;;;;;;;19.19;nan;11382.78;5016027;28;20172;-66
2023/09/05 08:18:10;;;;;;;1.20;1.20;;;;;;;19.34;nan;11714.06;5015950;28;20237;-66
2023/09/05 08:20:36;;;;;;;0.80;0.80;;;;;;;19.45;nan;13351.47;5016073;28;20556;-67
2023/09/05 08:23:01;;;;;;;0.50;0.50;;;;;;;19.60;nan;15646.66;5014580;28;20172;-67
2023/09/05 08:25:27;;;;;;;1.00;1.00;;;;;;;19.78;nan;23846.97;5015473;28;20168;-66
2023/09/05 08:27:53;;;;;;;0.63;0.63;;;;;;;20.19;nan;24853.09;5015743;28;20188;-67
2023/09/05 08:30:24;;;;;;;0.63;0.63;;;;;;;20.41;nan;24864.16;5015791;28;20677;-65
2023/09/05 08:32:50;;;;;;;0.52;0.52;;;;;;;20.90;nan;38745.81;5015581;28;20301;-66
2023/09/05 08:35:15;;;;;;;0.93;0.60;;;;;;;21.21;nan;40015.34;5015535;28;20179;-67
2023/09/05 08:37:41;;;;;;;0.50;0.50;;;;;;;21.30;nan;47354.13;5016088;28;20599;-68
2023/09/05 08:40:09;;;;;;;0.68;0.68;;;;;;;21.63;nan;53077.59;5015593;28;20175;-66
2023/09/05 08:42:37;;;;;;;0.73;0.73;;;;;;;22.36;nan;54801.03;5015482;28;20557;-67
2023/09/05 08:45:04;;;;;;;0.50;0.50;;;;;;;21.99;nan;56514.44;5015447;28;20202;-66
2023/09/05 08:47:30;;;;;;;0.70;0.70;;;;;;;22.66;nan;57567.38;5015184;28;20191;-67
2023/09/05 08:49:59;;;;;;;0.52;0.52;;;;;;;22.72;nan;57391.13;5015245;28;20643;-67
2023/09/05 08:52:38;;;;;;;0.60;0.60;;;;;;;22.72;nan;58301.84;5015107;28;20184;-67
2023/09/05 08:55:05;;;;;;;0.68;0.68;;;;;;;22.74;nan;58838.09;5015125;28;20183;-67
2023/09/05 08:57:33;;;;;;;0.80;0.80;;;;;;;22.83;nan;59136.84;5015066;28;20196;-67
2023/09/05 09:00:04;;;;;;;1.23;1.13;;;;;;;22.79;nan;59519.84;5015179;28;20175;-67
2023/09/05 09:02:30;;;;;;;0.88;0.88;;;;;;;22.68;nan;59419.81;5015216;28;20168;-67
2023/09/05 09:04:58;;;;;;;1.13;1.08;;;;;;;23.31;nan;59581.53;5014939;28;20639;-67
2023/09/05 09:07:27;;;;;;;0.70;0.70;;;;;;;23.40;nan;59572.63;5013159;28;20585;-67
2023/09/05 09:09:57;;;;;;;0.60;0.60;;;;;;;23.38;nan;59769.06;5015025;28;20211;-67
2023/09/05 09:12:30;;;;;;;0.63;0.63;;;;;;;23.46;nan;60098.50;5014961;28;20647;-67
2023/09/05 09:14:56;;;;;;;0.68;0.68;;;;;;;23.93;nan;60752.66;5014713;28;20214;-66
2023/09/05 09:17:23;;;;;;;0.80;0.80;;;;;;;24.22;nan;60988.13;5015138;28;20250;-66
2023/09/05 09:19:51;;;;;;;1.10;1.08;;;;;;;24.68;nan;61284.13;5014214;28;20672;-66
2023/09/05 09:22:23;;;;;;;0.60;0.60;;;;;;;24.57;nan;61220.06;5014545;28;20230;-66
2023/09/05 09:24:49;;;;;;;1.23;1.23;;;;;;;24.67;nan;61256.88;5014633;28;20172;-66
2023/09/05 09:27:18;;;;;;;0.40;0.40;;;;;;;24.84;nan;61242.00;5014690;28;20666;-66
2023/09/05 09:29:53;;;;;;;0.50;0.50;;;;;;;25.06;nan;61504.69;5014509;28;20195;-66
2023/09/05 09:32:20;;;;;;;0.50;0.50;;;;;;;24.47;nan;61478.44;5014389;28;20175;-66
2023/09/05 09:34:46;;;;;;;0.60;0.60;;;;;;;24.88;nan;61563.38;5014330;28;20626;-67
2023/09/05 09:37:12;;;;;;;0.80;0.80;;;;;;;24.55;nan;61452.97;5014488;28;20176;-66
2023/09/05 09:39:37;;;;;;;0.63;0.63;;;;;;;24.85;nan;61342.47;5014309;28;20266;-66
2023/09/05 09:42:03;;;;;;;0.70;0.70;;;;;;;25.26;nan;61532.47;5014380;28;20227;-67
2023/09/05 09:44:30;;;;;;;0.55;0.55;;;;;;;25.10;nan;61649.84;5014062;28;20172;-66
2023/09/05 09:46:57;;;;;;;0.82;0.82;;;;;;;25.15;nan;61365.25;5014151;28;20182;-66
2023/09/05 09:49:24;;;;;;;0.70;0.70;;;;;;;25.27;nan;61494.38;5014224;28;20202;-67
2023/09/05 09:51:54;;;;;;;0.57;0.57;;;;;;;25.14;nan;61469.28;5013955;28;20203;-66
2023/09/05 09:54:26;;;;;;;0.60;0.60;;;;;;;25.47;nan;61639.34;5014118;28;20172;-65
2023/09/05 09:56:53;;;;;;;0.70;0.70;;;;;;;25.09;nan;61607.44;5012213;28;20187;-67
2023/09/05 09:59:26;;;;;;;0.63;0.63;;;;;;;25.20;nan;61561.78;5013430;28;20275;-67
2023/09/05 10:01:53;;;;;;;0.88;0.88;;;;;;;25.41;nan;61507.00;5013495;28;20172;-66
2023/09/05 10:04:21;;;;;;;0.63;0.63;;;;;;;25.72;nan;61845.03;5013167;28;20172;-67
2023/09/05 10:06:48;;;;;;;0.50;0.50;;;;;;;26.21;nan;61976.59;5013270;28;20660;-67
2023/09/05 10:09:16;;;;;;;0.35;0.35;;;;;;;26.22;nan;62056.31;5013362;28;20314;-66
2023/09/05 10:11:43;;;;;;;0.73;0.73;;;;;;;26.17;nan;62121.34;5028400;28;20267;-66
2023/09/05 10:14:10;;;;;;;1.17;1.15;;;;;;;25.95;nan;62222.03;5013355;28;20160;-67
2023/09/05 10:16:37;;;;;;;0.68;0.68;;;;;;;25.79;nan;62122.66;5013466;28;20176;-66
2023/09/05 10:19:03;;;;;;;0.65;0.65;;;;;;;25.91;nan;62102.81;5013406;28;20169;-68
2023/09/05 10:21:30;;;;;;;0.80;0.80;;;;;;;25.92;nan;62158.97;5013293;28;20172;-67
2023/09/05 10:23:56;;;;;;;0.60;0.60;;;;;;;26.31;nan;62262.53;5014306;28;20176;-67
2023/09/05 10:26:22;;;;;;;0.88;0.88;;;;;;;26.35;nan;62118.28;5018071;28;20172;-66
2023/09/05 10:28:47;;;;;;;0.85;0.85;;;;;;;26.54;nan;62286.13;5017336;28;20278;-66
2023/09/05 10:31:13;;;;;;;0.65;0.65;;;;;;;26.58;nan;62316.91;5018479;28;20179;-66
2023/09/05 10:33:42;;;;;;;0.85;0.85;;;;;;;26.65;nan;62371.50;5018275;28;20667;-65
2023/09/05 10:36:46;;;;;;;0.40;0.40;;;;;;;26.81;nan;62368.78;5012885;28;20200;-66
2023/09/05 10:39:27;;;;;;;0.75;0.75;;;;;;;26.97;nan;62399.59;5012128;28;20229;-67
2023/09/05 10:41:53;;;;;;;0.57;0.57;;;;;;;26.78;nan;62433.53;5012630;28;20190;-67
2023/09/05 10:44:19;;;;;;;0.80;0.80;;;;;;;26.66;nan;62541.03;5012554;28;20184;-67
2023/09/05 10:46:51;;;;;;;1.00;1.00;;;;;;;26.77;nan;62474.38;5012365;28;20596;-67
2023/09/05 10:49:16;;;;;;;0.70;0.70;;;;;;;26.55;nan;62470.75;5012053;28;20589;-66
2023/09/05 10:52:19;;;;;;;1.00;1.00;;;;;;;26.58;nan;62487.31;5012636;28;20168;-66
2023/09/05 10:54:45;;;;;;;0.52;0.52;;;;;;;26.08;nan;62438.00;5012420;28;20555;-66
2023/09/05 10:57:43;;;;;;;1.70;1.58;;;;;;;25.80;nan;62380.94;5012390;28;20251;-68
2023/09/05 11:00:14;;;;;;;0.68;0.68;;;;;;;25.84;nan;62338.41;5010556;28;20612;-68
2023/09/05 11:02:44;;;;;;;1.15;1.13;;;;;;;25.91;nan;62348.41;5012208;28;20255;-67
2023/09/05 11:05:17;;;;;;;0.90;0.90;;;;;;;25.87;nan;62344.44;5012625;28;20207;-68
2023/09/05 11:07:46;;;;;;;1.30;0.88;;;;;;;25.65;nan;62277.44;5012207;28;20618;-66
2023/09/05 11:10:29;;;;;;;3.38;1.13;;;;;;;25.55;nan;62270.69;5012788;28;20207;-66
2023/09/05 11:12:55;;;;;;;0.68;0.68;;;;;;;25.73;nan;62273.47;5012525;28;20168;-67
2023/09/05 11:15:32;;;;;;;1.05;1.05;;;;;;;25.52;nan;62281.47;5012214;28;20168;-66
2023/09/05 11:18:01;;;;;;;0.82;0.82;;;;;;;25.59;nan;62254.31;5012181;28;20180;-67
2023/09/05 11:20:40;;;;;;;1.17;0.93;;;;;;;25.72;nan;62292.69;5012087;28;20173;-66
2023/09/05 11:23:17;;;;;;;1.08;1.02;;;;;;;25.23;nan;62235.34;5012156;28;20186;-65
2023/09/05 11:25:50;;;;;;;0.82;0.82;;;;;;;24.57;nan;62202.47;5012088;28;20259;-67
2023/09/05 11:28:16;;;;;;;0.95;0.95;;;;;;;23.92;nan;62066.31;5011843;28;20231;-65
2023/09/05 11:30:44;;;;;;;2.03;1.30;;;;;;;23.39;nan;62183.91;5011834;28;20206;-65
2023/09/05 11:33:14;;;;;;;0.90;0.90;;;;;;;22.95;nan;61972.72;5011811;28;20237;-65
2023/09/05 11:35:48;;;;;;;0.50;0.50;;;;;;;22.80;nan;61875.47;5012174;28;20210;-66
2023/09/05 11:38:14;;;;;;;0.90;0.90;;;;;;;23.17;nan;61932.56;5011742;28;20577;-67
2023/09/05 11:40:49;;;;;;;0.80;0.80;;;;;;;22.78;nan;61918.06;5011393;28;20210;-65
2023/09/05 11:43:14;;;;;;;0.98;0.98;;;;;;;22.77;nan;61883.06;5012138;28;20159;-67
2023/09/05 11:45:43;;;;;;;0.70;0.70;;;;;;;22.76;nan;61839.66;5011636;28;20267;-68
2023/09/05 11:48:11;;;;;;;0.60;0.60;;;;;;;22.77;nan;61971.06;5011459;28;20275;-68
2023/09/05 11:50:38;;;;;;;0.90;0.90;;;;;;;22.76;nan;62056.47;5011501;28;20175;-67
2023/09/05 11:53:06;;;;;;;0.70;0.70;;;;;;;22.90;nan;61998.88;5010495;28;20168;-67
2023/09/05 11:55:32;;;;;;;0.65;0.65;;;;;;;22.83;nan;61962.25;5011490;28;20180;-67